LICA/SUF METAR and TAF weather

Enter ICAO airport designator
Station Type Date Time Source
LICA METAR 2020/09/18 20:50 UTC NOAA

LICA 182050Z AUTO 30003KT 270V040 9999 NCD 24/20 Q1017


Station Type Date Time Source
LICA Decoded METAR 2020/09/18 20:50 UTC NOAA

Lamezia Terme, Italy (LICA) 38-54N 016-15E
Sep 18, 2020 - 04:50 PM EDT / 2020.09.18 2050 UTC
Wind: from the WNW (300 degrees) at 3 MPH (3 KT) (direction variable):0
Visibility: greater than 7 mile(s):0
Temperature: 75 F (24 C)
Dew Point: 68 F (20 C)
Relative Humidity: 78%
Pressure (altimeter): 30.03 in. Hg (1017 hPa)
ob: LICA 182050Z AUTO 30003KT 270V040 9999 NCD 24/20 Q1017
cycle: 21

Station Type Date Time Source
LICA TAF 2020/09/18 18:21 UTC NOAA

TAF LICA 181700Z 1818/1918 VRB05KT 9999 SCT030
BECMG 1908/1910 27010KT

Example: see airport list